Accueil
METAR-TAF:

METAR-TAF

Aéroports :

Caracas, Venezuela

Aéroport international Maiquetía - Simón Bolívar

latitude: 10-36N, longitude: 066-59W, altitude: 43 m

Observation

Le bulletin a été fait il y a 59 minutes, à 01:00 UTC
Vent 2 kt de est
Température 27°C
Humidité 74%
Pression 1010 hPa
Visibilité 10 km ou plus
Quelques nuages à une hauteur de 1600 ft

METAR: SVMI 250100Z 09002KT 9999 FEW016 27/22 Q1010

Heure: 21:59 (01:59 UTC)

Prévision

Le bulletin a été fait il y a 3 heures et 59 minutes, à 22:00 UTC
Prévision valable du 25 à 00 UTC au 26 à 00 UTC
Vent 10 kt de nord-est
Visibilité 10 km ou plus
Nuages épars à une hauteur de 1600 ft
Evoluant progressivement
du 25 à 02 UTC au 25 à 06 UTC
Vent 8 kt de nord-est

TAF: SVMI 242200Z 2500/2600 05010KT 9999 SCT016 TX33/18Z TN25/09Z BECMG 2502/2506 05008KT

Observations et prévisions météorologiques de plus de 4000 aéroports (messages METAR et TAF).

Les stations disponibles sont représentées par des disques jaunes et rouges sur la carte.

Passer la souris dessus pour voir le nom de la station.

Cliquer dessus pour voir les observations et prévisions météorologiques.

Pour changer de carte: cliquez sur les boutons verts avec une croix noire pour zoomer, sur le bouton vert avec un tiret pour effectuer un zoom arrière, ou sur les flèches vertes pour les cartes adjacentes.


METAR-TAF: